Alton, New Hampshire
Current Conditions -  °F | °C
As of 8:35 PM on Wednesday 22 Oct 2014 (Local Time) from KLCI Reporting Station
Overcast Overcast  
Wind Chill:   Ceiling: 900
Heat Index:   Visibility: 10mi
Dew Point:   Wind: 14mph
Humidity: 87%   Direction: 50°NE
Pressure: 30.01"   Gusts: 28mph
Location:  43.45°N, 71.22°W
Report Text: KLCI 230035Z AUTO 05012G24KT 10SM OVC009 08/06 A3001 RMK AO1
Loading
Personal Weather Stations






























Interactive Weather Map
Tropical Storm Tracking
New forecast layout! Learn more

10-Day Weather Forecast

Advertisements
Track Severe Weather on mobile